Time;durP1;ratioP1;P1;durP2;ratioP2;P2;SDS_P1;SDS_P2;PMS_P1;PMS_P2;Temp;Humidity;BMP_temperature;BMP_pressure;BME280_temperature;BME280_humidity;BME280_pressure;Samples;Min_cycle;Max_cycle;Signal;HPM_P1;HPM_P2
2021/10/27 00:01:33;;;;;;;2.07;1.07;;;10.90;99.90;;;;;;5054237;28;20434;-66
2021/10/27 00:04:02;;;;;;;2.20;2.10;;;10.90;99.90;;;;;;5054272;28;20432;-66
2021/10/27 00:06:30;;;;;;;0.90;0.60;;;10.90;99.90;;;;;;5054185;28;20457;-64
2021/10/27 00:08:58;;;;;;;1.10;0.80;;;10.90;99.90;;;;;;5054286;28;20469;-64
2021/10/27 00:11:26;;;;;;;0.90;0.60;;;10.90;99.90;;;;;;5053837;28;20493;-65
2021/10/27 00:13:55;;;;;;;0.93;0.53;;;11.00;99.90;;;;;;5054041;28;20424;-65
2021/10/27 00:16:23;;;;;;;0.90;0.50;;;11.00;99.90;;;;;;5053910;28;20419;-66
2021/10/27 00:18:52;;;;;;;1.23;1.13;;;10.90;99.90;;;;;;5053972;28;20390;-63
2021/10/27 00:21:20;;;;;;;0.83;0.53;;;11.00;99.90;;;;;;5053385;28;20450;-64
2021/10/27 00:23:48;;;;;;;1.67;0.57;;;10.90;99.90;;;;;;5053961;28;20756;-63
2021/10/27 00:26:16;;;;;;;2.37;0.73;;;10.90;99.90;;;;;;5053822;28;20431;-64
2021/10/27 00:28:45;;;;;;;1.00;0.70;;;10.90;99.90;;;;;;5053902;28;20418;-65
2021/10/27 00:31:14;;;;;;;0.80;0.50;;;11.00;99.90;;;;;;5053583;28;20459;-65
2021/10/27 00:33:44;;;;;;;0.90;0.60;;;10.80;99.90;;;;;;5053750;28;20446;-66
2021/10/27 00:36:15;;;;;;;0.80;0.50;;;10.90;99.90;;;;;;5053716;28;20557;-66
2021/10/27 00:38:43;;;;;;;0.80;0.50;;;10.90;99.90;;;;;;5053549;28;20427;-64
2021/10/27 00:41:12;;;;;;;0.80;0.50;;;11.00;99.90;;;;;;5053776;28;20400;-65
2021/10/27 00:43:40;;;;;;;1.40;1.17;;;10.90;99.90;;;;;;5053499;28;20443;-65
2021/10/27 00:46:20;;;;;;;2.07;1.10;;;10.90;99.90;;;;;;5053538;28;20386;-65
2021/10/27 00:48:49;;;;;;;0.93;0.67;;;10.90;99.90;;;;;;5053799;28;20522;-65
2021/10/27 00:51:18;;;;;;;0.80;0.50;;;10.80;99.90;;;;;;5053393;28;20832;-65
2021/10/27 00:53:48;;;;;;;1.00;0.53;;;10.70;99.90;;;;;;5053085;28;20534;-65
2021/10/27 00:56:18;;;;;;;1.10;0.93;;;10.80;99.90;;;;;;5053369;28;20411;-65
2021/10/27 00:58:46;;;;;;;1.57;0.93;;;10.80;99.90;;;;;;5053432;28;20430;-65
2021/10/27 01:01:14;;;;;;;1.27;1.17;;;10.70;99.90;;;;;;5053587;28;20481;-65
2021/10/27 01:03:44;;;;;;;1.63;1.27;;;10.70;99.90;;;;;;5053254;28;20804;-65
2021/10/27 01:06:13;;;;;;;1.30;1.00;;;10.70;99.90;;;;;;5053565;28;20774;-65
2021/10/27 01:08:41;;;;;;;1.30;0.80;;;10.80;99.90;;;;;;5053303;28;20419;-63
2021/10/27 01:11:09;;;;;;;1.10;1.00;;;10.90;99.90;;;;;;5053242;28;20433;-64
2021/10/27 01:13:38;;;;;;;0.90;0.57;;;10.90;99.90;;;;;;5053330;28;20448;-65
2021/10/27 01:16:06;;;;;;;1.40;0.60;;;10.90;99.90;;;;;;5053092;28;20723;-65
2021/10/27 01:18:36;;;;;;;1.00;0.90;;;10.90;99.90;;;;;;5053123;28;20477;-66
2021/10/27 01:21:06;;;;;;;0.80;0.50;;;11.00;99.90;;;;;;5053237;28;20379;-66
2021/10/27 01:23:35;;;;;;;0.90;0.60;;;10.90;99.90;;;;;;5052975;28;20796;-66
2021/10/27 01:26:06;;;;;;;0.90;0.50;;;10.90;99.90;;;;;;5052678;28;20431;-66
2021/10/27 01:28:39;;;;;;;1.83;1.00;;;10.90;99.90;;;;;;5053072;28;20466;-66
2021/10/27 01:31:08;;;;;;;0.80;0.40;;;11.00;99.90;;;;;;5053228;28;20937;-64
2021/10/27 01:33:37;;;;;;;0.93;0.60;;;10.90;99.90;;;;;;5052511;28;20443;-66
2021/10/27 01:36:07;;;;;;;0.97;0.80;;;10.80;99.90;;;;;;5053421;28;20416;-63
2021/10/27 01:38:37;;;;;;;0.80;0.47;;;10.70;99.90;;;;;;5053419;28;20581;-65
2021/10/27 01:41:06;;;;;;;0.80;0.50;;;10.70;99.90;;;;;;5053892;28;20455;-63
2021/10/27 01:43:48;;;;;;;1.00;0.50;;;10.60;99.90;;;;;;5052580;28;20439;-62
2021/10/27 01:46:16;;;;;;;0.90;0.70;;;10.60;99.90;;;;;;5052380;28;20803;-64
2021/10/27 01:48:44;;;;;;;0.80;0.50;;;10.70;99.90;;;;;;5052913;28;20419;-65
2021/10/27 01:51:14;;;;;;;0.80;0.50;;;10.70;99.90;;;;;;5052378;28;20451;-66
2021/10/27 01:53:43;;;;;;;0.90;0.60;;;10.80;99.90;;;;;;5052348;28;20497;-64
2021/10/27 01:56:11;;;;;;;0.90;0.50;;;10.80;99.90;;;;;;5051973;28;20423;-66
2021/10/27 01:58:39;;;;;;;1.73;0.60;;;10.90;99.90;;;;;;5051976;28;20792;-66
2021/10/27 02:01:09;;;;;;;1.00;0.60;;;11.00;99.90;;;;;;5051820;28;20451;-66
2021/10/27 02:03:37;;;;;;;1.40;0.70;;;11.00;99.90;;;;;;5052005;28;20409;-66
2021/10/27 02:06:06;;;;;;;0.90;0.70;;;11.00;99.90;;;;;;5051801;28;20415;-67
2021/10/27 02:08:36;;;;;;;1.10;0.60;;;11.10;99.90;;;;;;5052065;28;20423;-65
2021/10/27 02:11:05;;;;;;;1.10;0.70;;;11.00;99.90;;;;;;5051712;28;20459;-63
2021/10/27 02:13:51;;;;;;;0.90;0.50;;;11.10;99.90;;;;;;5051942;28;20473;-64
2021/10/27 02:16:19;;;;;;;0.90;0.60;;;11.10;99.90;;;;;;5052001;28;20407;-65
2021/10/27 02:18:48;;;;;;;2.10;1.37;;;11.10;99.90;;;;;;5051883;28;20431;-65
2021/10/27 02:21:16;;;;;;;1.43;0.90;;;11.00;99.90;;;;;;5051727;28;20394;-65
2021/10/27 02:23:48;;;;;;;1.53;1.03;;;11.10;99.90;;;;;;5051618;28;20422;-63
2021/10/27 02:26:16;;;;;;;0.90;0.50;;;11.10;99.90;;;;;;5051699;28;20408;-66
2021/10/27 02:28:46;;;;;;;1.00;0.87;;;11.00;99.90;;;;;;5051855;28;20408;-66
2021/10/27 02:31:14;;;;;;;1.00;0.60;;;11.10;99.90;;;;;;5051693;28;20459;-66
2021/10/27 02:33:43;;;;;;;0.80;0.50;;;11.10;99.90;;;;;;5051928;28;20470;-64
2021/10/27 02:36:11;;;;;;;1.00;0.60;;;11.10;99.90;;;;;;5051456;28;20435;-63
2021/10/27 02:38:42;;;;;;;0.80;0.50;;;11.10;99.90;;;;;;5051628;28;20422;-65
2021/10/27 02:41:15;;;;;;;1.00;0.63;;;11.00;99.90;;;;;;5051808;28;20769;-65
2021/10/27 02:43:43;;;;;;;1.20;1.10;;;11.10;99.90;;;;;;5051105;28;20863;-66
2021/10/27 02:46:11;;;;;;;1.00;0.60;;;11.10;99.90;;;;;;5051879;28;20695;-66
2021/10/27 02:48:40;;;;;;;0.80;0.50;;;11.10;99.90;;;;;;5051435;28;20443;-66
2021/10/27 02:51:08;;;;;;;0.90;0.50;;;11.10;99.90;;;;;;5051227;28;20474;-66
2021/10/27 02:53:36;;;;;;;1.60;0.90;;;11.00;99.90;;;;;;5051478;28;20447;-66
2021/10/27 02:56:05;;;;;;;0.97;0.47;;;11.00;99.90;;;;;;5051731;28;20427;-66
2021/10/27 02:58:34;;;;;;;1.20;0.70;;;11.00;99.90;;;;;;5051926;28;20419;-65
2021/10/27 03:01:02;;;;;;;1.10;0.70;;;10.90;99.90;;;;;;5051753;28;20789;-66
2021/10/27 03:03:31;;;;;;;1.67;0.80;;;10.90;99.90;;;;;;5051995;28;20863;-65
2021/10/27 03:06:00;;;;;;;3.17;1.23;;;10.90;99.90;;;;;;5051640;28;20426;-64
2021/10/27 03:08:29;;;;;;;1.10;0.87;;;10.90;99.90;;;;;;5051369;28;20418;-65
2021/10/27 03:10:57;;;;;;;1.83;1.43;;;11.00;99.90;;;;;;5051042;28;20522;-66
2021/10/27 03:13:25;;;;;;;3.10;1.00;;;11.00;99.90;;;;;;5051181;28;20838;-66
2021/10/27 03:15:55;;;;;;;0.90;0.60;;;11.00;99.90;;;;;;5051075;28;20613;-66
2021/10/27 03:18:26;;;;;;;1.00;0.63;;;11.10;99.90;;;;;;5033228;28;20848;-65
2021/10/27 03:20:55;;;;;;;1.07;0.60;;;11.00;99.90;;;;;;5051242;28;20460;-65
2021/10/27 03:23:23;;;;;;;0.90;0.60;;;11.10;99.90;;;;;;5033227;28;20459;-65
2021/10/27 03:25:51;;;;;;;1.57;0.53;;;11.20;99.90;;;;;;5051038;28;20411;-65
2021/10/27 03:28:19;;;;;;;1.67;0.77;;;11.20;99.90;;;;;;5051312;28;20415;-66
2021/10/27 03:30:47;;;;;;;0.90;0.60;;;11.20;99.90;;;;;;5051173;28;20436;-66
2021/10/27 03:33:17;;;;;;;1.07;0.97;;;11.20;99.90;;;;;;5051121;28;20489;-66
2021/10/27 03:35:46;;;;;;;1.10;0.60;;;11.10;99.90;;;;;;5089208;22;20493;-67
2021/10/27 03:38:15;;;;;;;1.20;0.80;;;11.10;99.90;;;;;;5083216;28;20828;-66
2021/10/27 03:40:45;;;;;;;1.30;0.70;;;11.20;99.90;;;;;;5070855;28;20852;-66
2021/10/27 03:43:14;;;;;;;0.83;0.60;;;11.20;99.90;;;;;;5038097;28;20799;-67
2021/10/27 03:45:42;;;;;;;1.37;1.20;;;11.10;99.90;;;;;;5050699;28;20430;-68
2021/10/27 03:48:10;;;;;;;1.00;0.70;;;11.10;99.90;;;;;;5050751;28;20878;-67
2021/10/27 03:50:40;;;;;;;1.00;0.60;;;11.10;99.90;;;;;;5050687;28;20500;-67
2021/10/27 03:53:09;;;;;;;1.20;0.60;;;11.00;99.90;;;;;;5050441;28;20587;-67
2021/10/27 03:55:37;;;;;;;1.80;1.00;;;11.00;99.90;;;;;;5050589;28;20415;-66
2021/10/27 03:58:05;;;;;;;1.40;1.00;;;11.00;99.90;;;;;;5054163;28;20419;-67
2021/10/27 04:00:36;;;;;;;1.03;0.60;;;11.10;99.90;;;;;;5054228;28;20422;-66
2021/10/27 04:03:05;;;;;;;1.10;1.00;;;11.10;99.90;;;;;;5054114;28;20443;-68
2021/10/27 04:05:33;;;;;;;1.93;0.97;;;11.10;99.90;;;;;;5036243;28;20435;-65
2021/10/27 04:08:03;;;;;;;1.03;0.77;;;11.10;99.90;;;;;;5054601;28;20431;-67
2021/10/27 04:10:31;;;;;;;0.90;0.70;;;11.10;99.90;;;;;;5038794;28;20445;-66
2021/10/27 04:12:59;;;;;;;1.00;0.77;;;11.10;99.90;;;;;;5055625;28;20477;-68
2021/10/27 04:15:27;;;;;;;0.80;0.57;;;11.10;99.90;;;;;;5054511;28;20997;-67
2021/10/27 04:17:56;;;;;;;2.13;0.53;;;11.10;99.90;;;;;;5054103;28;20429;-67
2021/10/27 04:20:24;;;;;;;1.30;1.20;;;11.00;99.90;;;;;;5054818;28;20419;-69
2021/10/27 04:22:52;;;;;;;0.90;0.60;;;11.10;99.90;;;;;;5036463;28;20451;-68
2021/10/27 04:25:22;;;;;;;0.80;0.50;;;11.10;99.90;;;;;;5054519;28;20427;-67
2021/10/27 04:27:50;;;;;;;1.00;0.50;;;11.10;99.90;;;;;;5054405;28;20431;-67
2021/10/27 04:30:18;;;;;;;1.13;0.90;;;11.00;99.90;;;;;;5054597;28;20465;-67
2021/10/27 04:32:46;;;;;;;0.90;0.70;;;11.00;99.90;;;;;;5036861;28;21049;-67
2021/10/27 04:35:15;;;;;;;2.03;1.50;;;11.00;99.90;;;;;;5054597;28;20465;-66
2021/10/27 04:37:45;;;;;;;1.03;0.70;;;11.00;99.90;;;;;;5054979;28;20428;-68
2021/10/27 04:40:15;;;;;;;1.10;0.93;;;10.90;99.90;;;;;;5053508;28;20412;-68
2021/10/27 04:42:45;;;;;;;0.90;0.70;;;10.90;99.90;;;;;;5053692;28;20454;-68
2021/10/27 04:45:19;;;;;;;1.40;1.03;;;11.00;99.90;;;;;;5053291;28;20442;-67
2021/10/27 04:47:47;;;;;;;1.13;0.90;;;11.00;99.90;;;;;;5053190;28;20428;-68
2021/10/27 04:50:16;;;;;;;1.10;0.80;;;11.10;99.90;;;;;;5053263;28;20434;-68
2021/10/27 04:52:44;;;;;;;1.17;0.67;;;11.20;99.90;;;;;;5052865;28;21149;-66
2021/10/27 04:55:12;;;;;;;1.00;0.57;;;11.20;99.90;;;;;;5053044;28;20935;-68
2021/10/27 04:57:40;;;;;;;0.80;0.60;;;11.10;99.90;;;;;;5052972;28;20825;-67
2021/10/27 05:00:11;;;;;;;0.90;0.60;;;11.10;99.90;;;;;;5052647;28;20423;-68
2021/10/27 05:02:39;;;;;;;1.20;1.10;;;11.00;99.90;;;;;;5034990;28;20462;-67
2021/10/27 05:05:08;;;;;;;1.50;0.70;;;11.10;99.90;;;;;;5052901;28;20438;-67
2021/10/27 05:07:36;;;;;;;1.10;0.63;;;11.10;99.90;;;;;;5052578;28;20475;-68
2021/10/27 05:10:05;;;;;;;0.90;0.67;;;11.10;99.90;;;;;;5052904;28;20398;-66
2021/10/27 05:12:33;;;;;;;1.90;1.40;;;11.10;99.90;;;;;;5053026;28;20471;-68
2021/10/27 05:15:01;;;;;;;1.17;0.90;;;11.20;99.90;;;;;;5052926;28;20926;-67
2021/10/27 05:17:31;;;;;;;1.00;0.80;;;11.10;99.90;;;;;;5052863;28;20424;-67
2021/10/27 05:19:59;;;;;;;0.90;0.70;;;11.00;99.90;;;;;;5052992;28;20408;-66
2021/10/27 05:22:27;;;;;;;1.00;0.60;;;11.00;99.90;;;;;;5052561;28;20418;-68
2021/10/27 05:24:55;;;;;;;1.20;0.90;;;11.00;99.90;;;;;;5053335;28;20419;-67
2021/10/27 05:27:23;;;;;;;2.40;1.23;;;11.00;99.90;;;;;;5052502;28;20481;-68
2021/10/27 05:29:52;;;;;;;0.87;0.60;;;11.10;99.90;;;;;;5052802;28;20419;-68
2021/10/27 05:32:20;;;;;;;1.40;1.30;;;11.00;99.90;;;;;;5052428;28;20444;-68
2021/10/27 05:34:50;;;;;;;1.03;0.93;;;11.00;99.90;;;;;;5052599;28;20442;-68
2021/10/27 05:37:18;;;;;;;1.03;0.70;;;11.10;99.90;;;;;;5052104;28;20510;-68
2021/10/27 05:39:46;;;;;;;0.90;0.60;;;11.20;99.90;;;;;;5052311;28;20414;-68
2021/10/27 05:42:18;;;;;;;1.00;0.80;;;11.10;99.90;;;;;;5052614;28;20474;-67
2021/10/27 05:44:48;;;;;;;1.00;0.73;;;11.10;99.90;;;;;;5052316;28;20404;-67
2021/10/27 05:47:16;;;;;;;1.00;0.90;;;11.20;99.90;;;;;;5052441;28;20776;-67
2021/10/27 05:49:50;;;;;;;1.70;1.27;;;11.20;99.90;;;;;;5052290;28;20498;-68
2021/10/27 05:55:23;;;;;;;4.00;1.00;;;11.10;99.90;;;;;;5034110;28;20435;-65
2021/10/27 05:57:51;;;;;;;1.13;0.60;;;11.20;99.90;;;;;;5052111;28;20773;-68
2021/10/27 06:00:19;;;;;;;1.43;0.70;;;11.20;99.90;;;;;;5052157;28;20476;-68
2021/10/27 06:02:47;;;;;;;1.10;0.63;;;11.20;99.90;;;;;;5051855;28;21016;-69
2021/10/27 06:05:15;;;;;;;0.90;0.60;;;11.20;99.90;;;;;;5051707;28;20407;-67
2021/10/27 06:07:45;;;;;;;1.00;0.60;;;11.20;99.90;;;;;;5051374;28;20781;-68
2021/10/27 06:10:19;;;;;;;1.43;1.00;;;11.30;99.90;;;;;;5034096;28;20431;-67
2021/10/27 06:12:48;;;;;;;19.27;1.60;;;11.30;99.90;;;;;;5051411;28;20471;-67
2021/10/27 06:15:17;;;;;;;0.90;0.70;;;11.20;99.90;;;;;;5050082;28;20404;-66
2021/10/27 06:17:46;;;;;;;1.20;0.70;;;11.20;99.90;;;;;;5050847;28;20484;-67
2021/10/27 06:20:14;;;;;;;2.40;2.20;;;11.20;99.90;;;;;;5051063;28;20806;-67
2021/10/27 06:22:43;;;;;;;1.20;0.90;;;11.20;99.90;;;;;;5051975;28;20450;-67
2021/10/27 06:25:13;;;;;;;1.20;1.00;;;11.20;99.90;;;;;;5051298;28;20423;-67
2021/10/27 06:27:44;;;;;;;1.33;1.10;;;11.20;99.90;;;;;;5051161;28;20424;-67
2021/10/27 06:30:16;;;;;;;1.03;0.60;;;11.30;99.90;;;;;;5033861;28;20489;-68
2021/10/27 06:32:55;;;;;;;1.07;0.80;;;11.30;99.90;;;;;;5051756;28;20439;-66
2021/10/27 06:35:26;;;;;;;1.47;1.37;;;11.40;99.90;;;;;;5051370;28;20435;-66
2021/10/27 06:38:19;;;;;;;1.10;1.00;;;11.30;99.90;;;;;;5051365;28;20912;-66
2021/10/27 06:46:33;;;;;;;0.80;0.40;;;11.40;99.90;;;;;;5051180;28;20427;-67
2021/10/27 06:49:01;;;;;;;1.00;0.73;;;11.40;99.90;;;;;;5051231;28;20419;-68
2021/10/27 06:51:29;;;;;;;1.30;0.90;;;11.50;99.90;;;;;;5060229;28;20406;-67
2021/10/27 06:53:57;;;;;;;1.57;0.73;;;11.50;99.90;;;;;;5066215;28;20520;-66
2021/10/27 06:56:27;;;;;;;0.90;0.60;;;11.50;99.90;;;;;;5065903;28;20427;-67
2021/10/27 06:59:03;;;;;;;1.00;0.70;;;11.60;99.90;;;;;;5066013;28;20427;-66
2021/10/27 07:01:51;;;;;;;1.93;1.10;;;11.60;99.90;;;;;;5056964;28;20492;-68
2021/10/27 07:04:36;;;;;;;0.90;0.50;;;11.60;99.90;;;;;;5037357;28;20807;-67
2021/10/27 07:14:57;;;;;;;1.10;0.70;;;11.70;99.90;;;;;;5051091;28;20419;-68
2021/10/27 07:15:43;;;;;;;1.90;0.90;;;11.90;99.90;;;;;;5051510;28;20442;-66
2021/10/27 07:18:11;;;;;;;1.83;0.80;;;12.10;99.90;;;;;;5055448;28;20840;-68
2021/10/27 07:20:39;;;;;;;1.57;1.47;;;12.20;99.90;;;;;;5072077;28;21005;-68
2021/10/27 07:23:09;;;;;;;0.90;0.60;;;12.20;99.90;;;;;;5071940;28;20500;-66
2021/10/27 07:25:39;;;;;;;1.83;1.63;;;12.30;99.90;;;;;;5072201;28;20497;-67
2021/10/27 07:28:09;;;;;;;1.40;0.80;;;12.40;99.90;;;;;;5071506;28;20802;-68
2021/10/27 07:30:42;;;;;;;1.53;1.37;;;12.40;99.90;;;;;;5071635;28;20410;-67
2021/10/27 07:33:10;;;;;;;1.00;0.70;;;12.40;99.90;;;;;;5074875;28;20801;-67
2021/10/27 07:35:43;;;;;;;0.90;0.50;;;12.40;99.90;;;;;;5074268;28;20438;-68
2021/10/27 07:41:03;;;;;;;2.40;1.67;;;12.50;99.90;;;;;;5074819;28;20456;-67
2021/10/27 07:43:33;;;;;;;0.90;0.70;;;12.70;99.90;;;;;;5069888;28;20438;-68
2021/10/27 07:46:02;;;;;;;1.10;0.93;;;12.70;99.90;;;;;;5037058;28;20514;-68
2021/10/27 07:48:31;;;;;;;1.63;1.53;;;12.80;99.90;;;;;;5053304;28;20417;-69
2021/10/27 07:50:59;;;;;;;1.20;0.80;;;12.70;99.90;;;;;;5074820;28;20414;-69
2021/10/27 07:53:31;;;;;;;0.90;0.50;;;12.90;99.90;;;;;;5074237;28;20969;-67
2021/10/27 07:56:00;;;;;;;1.97;0.60;;;12.90;99.90;;;;;;5074666;28;20446;-67
2021/10/27 07:58:29;;;;;;;0.90;0.60;;;12.80;99.90;;;;;;5074898;28;20768;-67
2021/10/27 08:01:00;;;;;;;0.80;0.57;;;12.70;99.90;;;;;;5075066;28;20370;-68
2021/10/27 08:03:29;;;;;;;0.93;0.60;;;12.70;99.90;;;;;;5056677;28;20440;-69
2021/10/27 08:06:03;;;;;;;1.77;0.70;;;12.90;99.90;;;;;;5074370;28;20865;-68
2021/10/27 08:08:32;;;;;;;0.90;0.60;;;13.00;99.90;;;;;;5074463;28;20501;-64
2021/10/27 08:11:00;;;;;;;0.90;0.73;;;13.10;99.90;;;;;;5056567;28;20448;-66
2021/10/27 08:13:29;;;;;;;1.00;0.70;;;13.10;99.90;;;;;;5073872;28;20472;-68
2021/10/27 08:15:58;;;;;;;0.83;0.50;;;13.10;99.90;;;;;;5073919;28;20479;-69
2021/10/27 08:18:27;;;;;;;1.13;0.80;;;13.10;99.90;;;;;;5057442;28;20427;-66
2021/10/27 08:20:55;;;;;;;1.17;0.60;;;13.20;99.90;;;;;;5054049;28;20404;-66
2021/10/27 08:23:27;;;;;;;0.90;0.60;;;13.30;99.90;;;;;;5036103;28;20529;-68
2021/10/27 08:25:57;;;;;;;1.73;0.80;;;13.30;99.90;;;;;;5053845;28;20390;-65
2021/10/27 08:28:33;;;;;;;0.90;0.67;;;13.40;99.90;;;;;;5053860;28;20785;-65
2021/10/27 08:31:08;;;;;;;0.90;0.60;;;13.40;99.90;;;;;;5053700;28;20764;-65
2021/10/27 08:33:50;;;;;;;0.90;0.50;;;13.50;99.90;;;;;;5053336;28;20447;-66
2021/10/27 08:36:18;;;;;;;1.20;0.63;;;13.50;99.90;;;;;;5053686;28;20449;-66
2021/10/27 08:38:49;;;;;;;1.00;0.90;;;13.50;99.90;;;;;;5053504;28;20494;-66
2021/10/27 08:41:39;;;;;;;1.07;0.83;;;13.50;99.90;;;;;;5053184;28;20402;-67
2021/10/27 08:44:09;;;;;;;0.80;0.50;;;13.50;99.90;;;;;;5053587;28;20404;-66
2021/10/27 08:46:39;;;;;;;1.00;0.60;;;13.50;99.90;;;;;;5053456;28;20797;-66
2021/10/27 08:49:08;;;;;;;1.20;0.80;;;13.60;99.90;;;;;;5053340;28;20777;-66
2021/10/27 08:51:37;;;;;;;1.40;0.67;;;13.70;99.90;;;;;;5035304;28;20522;-66
2021/10/27 08:54:07;;;;;;;1.00;0.70;;;13.80;99.90;;;;;;5053185;28;20959;-66
2021/10/27 08:56:35;;;;;;;1.17;0.70;;;13.80;99.90;;;;;;5053262;28;20453;-66
2021/10/27 08:59:11;;;;;;;1.13;0.97;;;13.80;99.90;;;;;;5053284;28;20415;-68
2021/10/27 09:01:50;;;;;;;1.30;1.00;;;13.80;99.90;;;;;;5053060;28;20662;-66
2021/10/27 09:04:30;;;;;;;0.90;0.63;;;13.90;99.90;;;;;;5053285;28;20415;-68
2021/10/27 09:07:09;;;;;;;0.90;0.50;;;13.90;99.90;;;;;;5053475;28;20443;-67
2021/10/27 09:09:53;;;;;;;1.47;0.87;;;14.00;99.90;;;;;;5052883;28;20772;-66
2021/10/27 09:35:16;;;;;;;1.10;0.80;;;14.70;99.90;;;;;;5072878;28;20465;-66
2021/10/27 09:38:25;;;;;;;2.20;0.77;;;14.90;99.90;;;;;;5072958;28;20773;-67
2021/10/27 09:41:19;;;;;;;1.53;1.17;;;15.00;99.90;;;;;;5072964;28;20423;-67
2021/10/27 09:44:16;;;;;;;1.20;1.10;;;15.10;99.90;;;;;;5072840;28;20438;-67
2021/10/27 10:06:43;;;;;;;2.47;0.87;;;15.60;95.80;;;;;;5072915;28;20418;-68
2021/10/27 10:09:14;;;;;;;1.53;1.00;;;15.30;98.20;;;;;;5073084;28;20430;-68
2021/10/27 10:11:43;;;;;;;0.90;0.60;;;15.30;98.70;;;;;;5073077;28;20769;-68
2021/10/27 10:14:14;;;;;;;2.30;1.27;;;15.20;99.20;;;;;;5072096;28;20418;-67
2021/10/27 10:16:44;;;;;;;1.40;1.30;;;15.30;99.30;;;;;;5071934;28;20938;-68
2021/10/27 10:19:15;;;;;;;2.03;0.77;;;15.20;98.90;;;;;;5072187;28;20433;-68
2021/10/27 10:21:45;;;;;;;0.90;0.63;;;15.30;98.50;;;;;;5072111;28;20733;-68
2021/10/27 10:24:34;;;;;;;1.10;0.73;;;15.30;98.50;;;;;;5072465;28;20724;-69
2021/10/27 10:27:07;;;;;;;1.10;0.60;;;15.40;98.50;;;;;;5072891;28;20407;-68
2021/10/27 10:29:52;;;;;;;1.23;0.97;;;15.50;98.30;;;;;;5072809;28;20415;-66
2021/10/27 10:32:29;;;;;;;0.90;0.50;;;15.70;97.30;;;;;;5072664;28;20412;-66
2021/10/27 10:35:02;;;;;;;1.50;0.70;;;15.80;94.40;;;;;;5072111;28;20469;-68
2021/10/27 10:37:34;;;;;;;1.20;0.70;;;15.90;93.20;;;;;;5072128;28;20447;-67
2021/10/27 10:59:47;;;;;;;1.40;0.67;;;14.80;99.90;;;;;;5054068;28;20812;-67
2021/10/27 11:22:44;;;;;;;0.80;0.50;;;15.30;99.90;;;;;;5075575;28;20453;-68
2021/10/27 11:25:22;;;;;;;1.20;0.53;;;15.30;99.90;;;;;;5075373;28;20685;-67
2021/10/27 11:41:57;;;;;;;0.80;0.50;;;15.30;99.90;;;;;;5075100;28;20787;-68
2021/10/27 11:44:36;;;;;;;1.00;0.50;;;15.20;99.90;;;;;;5074953;28;20741;-67
2021/10/27 11:47:08;;;;;;;0.90;0.60;;;15.20;99.90;;;;;;5074714;28;20418;-66
2021/10/27 11:49:39;;;;;;;2.00;0.80;;;15.30;99.90;;;;;;5075104;28;20393;-67
2021/10/27 11:52:08;;;;;;;0.90;0.50;;;15.40;99.90;;;;;;5075242;28;20442;-65
2021/10/27 11:54:38;;;;;;;0.90;0.60;;;15.50;99.90;;;;;;5075131;28;20389;-66
2021/10/27 11:57:10;;;;;;;1.00;0.63;;;15.60;99.90;;;;;;5074917;28;20432;-66
2021/10/27 11:59:46;;;;;;;1.00;0.67;;;15.50;99.90;;;;;;5075049;28;20407;-68
2021/10/27 12:02:15;;;;;;;0.87;0.53;;;15.40;99.90;;;;;;5074972;28;20487;-67
2021/10/27 12:04:44;;;;;;;0.90;0.50;;;15.30;99.90;;;;;;5074813;28;20739;-67
2021/10/27 12:07:17;;;;;;;1.30;0.70;;;15.30;99.90;;;;;;5074528;28;20915;-67
2021/10/27 12:10:01;;;;;;;1.00;0.60;;;15.30;99.90;;;;;;5074895;28;20393;-68
2021/10/27 12:15:39;;;;;;;1.20;0.80;;;15.20;99.90;;;;;;5074290;28;20441;-67
2021/10/27 12:18:10;;;;;;;1.13;1.03;;;15.20;99.90;;;;;;5073780;28;20401;-68
2021/10/27 12:20:41;;;;;;;1.20;0.80;;;15.30;99.90;;;;;;5075591;28;20385;-68
2021/10/27 12:23:18;;;;;;;0.90;0.70;;;15.20;99.90;;;;;;5074419;28;20446;-68
2021/10/27 12:25:47;;;;;;;1.23;0.93;;;15.30;99.90;;;;;;5056197;28;20416;-66
2021/10/27 12:28:29;;;;;;;0.83;0.50;;;15.30;99.90;;;;;;5074662;28;20397;-69
2021/10/27 12:30:57;;;;;;;0.80;0.43;;;15.40;99.90;;;;;;5075390;28;20437;-67
2021/10/27 12:33:48;;;;;;;1.00;0.70;;;15.50;99.90;;;;;;5074187;28;21012;-67
2021/10/27 12:36:24;;;;;;;0.80;0.50;;;15.50;99.90;;;;;;5068890;28;20547;-67
2021/10/27 12:39:12;;;;;;;2.70;1.03;;;15.40;99.90;;;;;;5074061;28;20397;-67
2021/10/27 12:41:40;;;;;;;1.00;0.60;;;15.40;99.90;;;;;;5074436;28;20413;-67
2021/10/27 12:44:22;;;;;;;1.47;0.70;;;15.30;99.90;;;;;;5074108;28;20424;-67
2021/10/27 12:47:06;;;;;;;1.07;0.80;;;15.30;99.90;;;;;;5056718;28;20449;-68
2021/10/27 12:49:36;;;;;;;1.00;0.83;;;15.10;99.90;;;;;;5074460;28;20792;-67
2021/10/27 12:52:23;;;;;;;1.33;0.80;;;15.10;99.90;;;;;;5056376;28;20491;-69
2021/10/27 12:55:10;;;;;;;0.97;0.53;;;15.10;99.90;;;;;;5074728;28;20397;-65
2021/10/27 12:58:02;;;;;;;0.90;0.50;;;15.10;99.90;;;;;;5073809;28;20993;-68
2021/10/27 13:00:45;;;;;;;1.30;1.10;;;15.20;99.90;;;;;;5073695;28;20517;-68
2021/10/27 13:03:26;;;;;;;1.83;1.40;;;15.20;99.90;;;;;;5073877;28;20446;-69
2021/10/27 13:06:02;;;;;;;0.90;0.73;;;15.10;99.90;;;;;;5074309;28;20420;-70
2021/10/27 13:11:35;;;;;;;1.90;1.30;;;15.10;99.90;;;;;;5074404;28;20462;-69
2021/10/27 13:14:14;;;;;;;0.97;0.60;;;15.10;99.90;;;;;;5075731;28;20413;-67
2021/10/27 13:17:02;;;;;;;1.30;0.80;;;15.10;99.90;;;;;;5077362;28;20472;-67
2021/10/27 13:30:56;;;;;;;1.30;1.20;;;14.80;99.90;;;;;;4991823;28;20825;-68
2021/10/27 13:33:24;;;;;;;1.10;0.60;;;14.90;99.90;;;;;;5056511;28;20534;-68
2021/10/27 13:35:53;;;;;;;0.83;0.50;;;14.80;99.90;;;;;;5073271;28;20455;-67
2021/10/27 13:38:27;;;;;;;0.87;0.57;;;14.80;99.90;;;;;;5073532;28;20411;-67
2021/10/27 13:40:55;;;;;;;2.10;1.00;;;14.80;99.90;;;;;;5073029;28;20866;-69
2021/10/27 13:43:27;;;;;;;3.00;1.33;;;14.80;99.90;;;;;;5072445;28;20521;-68
2021/10/27 13:46:17;;;;;;;1.00;0.60;;;14.70;99.90;;;;;;5072434;28;20811;-68
2021/10/27 13:49:23;;;;;;;2.20;1.03;;;14.70;99.90;;;;;;5072476;28;20430;-68
2021/10/27 13:57:52;;;;;;;1.40;0.77;;;14.90;99.90;;;;;;5072613;28;20502;-66
2021/10/27 14:06:06;;;;;;;1.10;0.80;;;14.80;99.90;;;;;;5025670;28;20457;-66
2021/10/27 14:08:44;;;;;;;1.93;0.60;;;14.90;99.90;;;;;;5072477;28;20415;-68
2021/10/27 14:11:19;;;;;;;1.00;0.70;;;14.80;99.90;;;;;;5072261;28;20425;-68
2021/10/27 14:13:59;;;;;;;0.90;0.63;;;14.80;99.90;;;;;;5072085;28;20450;-67
2021/10/27 15:20:08;;;;;;;1.53;0.70;;;14.40;99.90;;;;;;5058222;28;20418;-67
2021/10/27 15:22:48;;;;;;;1.00;0.80;;;14.40;99.90;;;;;;5058118;28;20446;-67
2021/10/27 15:25:45;;;;;;;1.03;0.70;;;14.50;99.90;;;;;;5056596;28;20886;-68
2021/10/27 15:28:39;;;;;;;1.10;1.00;;;14.40;99.90;;;;;;5051987;28;20390;-67
2021/10/27 15:34:07;;;;;;;1.43;1.23;;;14.30;99.90;;;;;;5051111;28;20414;-69
2021/10/27 15:36:52;;;;;;;1.50;1.33;;;14.30;99.90;;;;;;5080348;23;20546;-64
2021/10/27 15:50:45;;;;;;;1.03;0.83;;;14.30;99.90;;;;;;5070642;28;20429;-63
2021/10/27 15:53:13;;;;;;;1.13;0.70;;;14.30;99.90;;;;;;5073104;28;20867;-64
2021/10/27 15:55:41;;;;;;;1.37;0.90;;;14.40;99.90;;;;;;5074227;28;20393;-64
2021/10/27 15:58:09;;;;;;;0.90;0.60;;;14.40;99.90;;;;;;5074069;28;20458;-64
2021/10/27 16:00:39;;;;;;;0.97;0.70;;;14.40;99.90;;;;;;5074185;28;20839;-65
2021/10/27 16:03:08;;;;;;;1.20;0.90;;;14.30;99.90;;;;;;5074874;28;20434;-64
2021/10/27 16:05:39;;;;;;;1.20;1.10;;;14.30;99.90;;;;;;5074807;28;20400;-63
2021/10/27 16:08:07;;;;;;;1.20;0.83;;;14.20;99.90;;;;;;5074436;28;20393;-65
2021/10/27 16:10:36;;;;;;;0.80;0.50;;;14.30;99.90;;;;;;5073954;28;20977;-64
2021/10/27 16:13:04;;;;;;;2.30;1.47;;;14.30;99.90;;;;;;5074802;28;20442;-63
2021/10/27 16:15:38;;;;;;;1.10;0.97;;;14.30;99.90;;;;;;5073844;28;20457;-62
2021/10/27 16:18:12;;;;;;;1.63;1.33;;;14.20;99.90;;;;;;5073957;28;20452;-64
2021/10/27 16:20:42;;;;;;;0.90;0.60;;;14.20;99.90;;;;;;5073962;28;20385;-63
2021/10/27 16:23:14;;;;;;;1.00;0.60;;;14.10;99.90;;;;;;5073727;28;20474;-65
2021/10/27 16:25:43;;;;;;;1.67;1.57;;;14.10;99.90;;;;;;5074055;28;20511;-61
2021/10/27 16:28:13;;;;;;;1.00;0.67;;;14.10;99.90;;;;;;5056093;28;20397;-64
2021/10/27 16:30:41;;;;;;;1.83;1.10;;;14.10;99.90;;;;;;5073856;28;20386;-63
2021/10/27 16:33:10;;;;;;;2.10;1.20;;;14.10;99.90;;;;;;5074193;28;20442;-61
2021/10/27 16:35:38;;;;;;;2.10;1.33;;;14.00;99.90;;;;;;5073624;28;20921;-65
2021/10/27 16:38:07;;;;;;;2.37;1.73;;;14.00;99.90;;;;;;5073735;28;20450;-65
2021/10/27 16:40:36;;;;;;;1.00;0.90;;;14.00;99.90;;;;;;5073572;28;20663;-61
2021/10/27 16:43:04;;;;;;;1.27;1.17;;;14.00;99.90;;;;;;5073596;28;20442;-63
2021/10/27 16:45:33;;;;;;;1.67;1.30;;;14.10;99.90;;;;;;5076711;28;20409;-64
2021/10/27 16:48:02;;;;;;;1.87;0.90;;;14.10;99.90;;;;;;5093614;28;20422;-63
2021/10/27 16:50:31;;;;;;;1.43;1.33;;;14.00;99.90;;;;;;5093553;28;20403;-62
2021/10/27 16:53:00;;;;;;;1.17;0.90;;;14.20;99.90;;;;;;5093744;28;20416;-63